Vraca, Bulgaria
Current Conditions -  °F | °C
As of 8:30 PM on Saturday 25 Oct 2014 (Local Time) from LBSF Reporting Station
Overcast Overcast  
Wind Chill: 27°   Ceiling: 3100
Heat Index: 34°   Visibility: 6mi
Dew Point: 28°   Wind: 9mph
Humidity: 81%   Direction: 30°NNE
Pressure: 30.18"   Gusts: NA
Location:  43.22°N, 23.56°E
Report Text: LBSF 251730Z 03004MPS 350V070 9999 FEW016 SCT019 OVC031 01/M02 Q1022 TEMPO 5000 SN
Loading
Personal Weather Stations






























Interactive Weather Map
Tropical Storm Tracking
New forecast layout! Learn more

10-Day Weather Forecast

Advertisements
Track Severe Weather on mobile